Terminal Aerodrome Forecast
Issued by NWS

Home | Current Version | Previous Version | Text Only | Print | Product List | Glossary On
Versions: 1 2 3 4 5 6 7 8 9 10 11 12 13 14 15 16 17 18 19 20
000
FTUS43 KILX 040500
TAFDEC
TAF
KDEC 040540Z 0406/0506 31010KT P6SM SCT025 BKN120
     FM040800 32010G18KT P6SM BKN025
     FM041100 33010G18KT P6SM SCT025 BKN120
     FM042300 33008KT P6SM BKN120=

USA.gov is the U.S. government's official web portal to all federal, state and local government web resources and services.